x

9440910 - Toke Point, Wa (tokw1) Weather Station

8:18 - Thu 31st Jul 2014 All times are PDT. -7 hours from GMT.

  • Wind
    8mph, 13mph gusts
  • Air Temp 63°f
  • Sea Pressure 1017.8mb
  • 9440910 - Toke Point, Wa
  • 9440910 - Toke Point, Wa

More Historic Weather Station data

Upgrade to MSW Pro to gain access to the past 30 days of data for over 8000 Wavebouys and Weather Stations around the globe.

Join Pro

Comparision Forecast

View Surf forecast
   
jeu. 07/31 8:18 8 13 mph 1017.8mb 63f
8:12 9 13 mph 1017.8mb 64f
8:06 6 9 mph 1017.9mb 64f
8:00 6 9 mph 1017.9mb 64f
7:54 6 8 mph 1017.9mb 64f
7:48 5 10 mph 1017.9mb 65f
7:42 7 15 mph 1017.9mb 65f
7:36 7 11 mph 1017.8mb 65f
7:30 10 16 mph 1017.9mb 65f
7:24 7 17 mph 1017.9mb 65f
7:18 7 15 mph 1017.9mb 65f
7:12 8 15 mph 1017.9mb 65f
7:06 10 18 mph 1017.9mb 65f
7:00 9 16 mph 1017.9mb 66f
6:54 13 16 mph 1017.9mb 65f
6:48 9 17 mph 1017.8mb 66f
6:42 9 17 mph 1017.8mb 67f
6:36 11 14 mph 1017.8mb 67f
6:30 14 20 mph 1017.8mb 67f
6:24 11 15 mph 1017.9mb 67f
6:18 8 14 mph 1018mb 67f
6:12 8 11 mph 1018mb 68f
6:06 8 16 mph 1018mb 68f
6:00 13 18 mph 1018mb 68f
5:54 13 18 mph 1018.1mb 68f
5:48 15 20 mph 1018.2mb 68f
5:42 11 20 mph 1018.3mb 68f
5:36 15 23 mph 1018.3mb 68f
5:30 13 20 mph 1018.3mb 68f
5:24 15 20 mph 1018.3mb 69f
5:18 14 18 mph 1018.3mb 68f
5:12 15 23 mph 1018.4mb 67f
5:06 18 23 mph 1018.5mb 67f
5:00 15 20 mph 1018.4mb 67f
4:54 15 21 mph 1018.5mb 67f
4:48 15 20 mph 1018.5mb 68f
4:42 18 25 mph 1018.5mb 69f
4:36 15 21 mph 1018.6mb 69f
4:00 13 15 mph 1018.7mb 69f
3:54 14 16 mph 1018.8mb 69f
3:18 14 17 mph 1019mb 70f
3:12 15 20 mph 1019.1mb 70f
3:06 14 20 mph 1019.2mb 70f
3:00 15 17 mph 1019.3mb 70f
2:54 11 20 mph 1019.3mb 70f
2:48 17 22 mph 1019.3mb 70f
2:42 15 20 mph 1019.3mb 70f
2:36 14 20 mph 1019.4mb 70f
2:30 15 20 mph 1019.4mb 70f
2:24 14 16 mph 1019.4mb 71f
2:18 14 20 mph 1019.5mb 71f
2:12 15 18 mph 1019.4mb 71f
2:06 14 17 mph 1019.4mb 71f
2:00 13 16 mph 1019.4mb 71f
1:54 14 18 mph 1019.5mb 71f
1:48 11 14 mph 1019.4mb 72f
1:42 10 15 mph 1019.5mb 71f
1:36 11 15 mph 1019.4mb 71f
1:30 13 15 mph 1019.4mb 71f
1:24 13 15 mph 1019.4mb 71f
1:18 14 15 mph 1019.4mb 71f
1:12 13 15 mph 1019.4mb 71f
1:06 10 11 mph 1019.4mb 72f
1:00 8 14 mph 1019.5mb 73f
12:54 10 14 mph 1019.4mb 71f
12:48 10 14 mph 1019.4mb 72f
12:42 10 14 mph 1019.4mb 72f
12:36 11 14 mph 1019.3mb 71f
12:30 10 13 mph 1019.3mb 71f
12:24 9 13 mph 1019.3mb 71f
12:18 10 13 mph 1019.4mb 71f
12:12 10 13 mph 1019.4mb 71f
12:06 9 13 mph 1019.4mb 71f
12:00 11 13 mph 1019.4mb 71f
11:54 8 10 mph 1019.4mb 72f
11:48 6 10 mph 1019.4mb 72f
11:42 8 10 mph 1019.4mb 71f
11:36 2 3 mph 1019.5mb 71f
11:30 2 3 mph 1019.6mb 70f
11:24 2 3 mph 1019.6mb 71f
11:18 2 5 mph 1019.7mb 70f
11:12 2 3 mph 1019.7mb 70f
11:06 2 6 mph 1019.7mb 68f
11:00 3 5 mph 1019.7mb 67f
10:54 3 6 mph 1019.6mb 65f
10:48 6
mph
1019.6mb 64f
10:42 5 7 mph 1019.6mb 64f
10:36 6 8 mph 1019.6mb 63f
10:30 7 8 mph 1019.7mb 63f
10:24 7 8 mph 1019.7mb 62f
10:18 7 8 mph 1019.7mb 62f
10:12 6 7 mph 1019.7mb 61f
10:06 6 7 mph 1019.7mb 61f
10:00 5 6 mph 1019.7mb 61f
9:54 5 7 mph 1019.8mb 61f
9:48 2 5 mph 1019.8mb 62f
9:42 3 5 mph 1019.9mb 62f
9:36 1 5 mph 1019.9mb 62f
9:30 5 6 mph 1020mb 60f
9:24 2 5 mph 1020mb 60f
9:18 1 2 mph 1020.1mb 60f
9:12 1 2 mph 1020.1mb 60f
9:06 1 2 mph 1020.1mb 60f
9:00 2 3 mph 1020.2mb 59f
8:54 2 3 mph 1020.2mb 59f
8:48 1 2 mph 1020.2mb 60f
8:42  -  2 mph 1020.2mb 59f
8:36 2 3 mph 1020.2mb 59f
8:30 3
mph
1020.2mb 59f
8:24 2 3 mph 1020.2mb 58f
8:18 2 3 mph 1020.1mb 58f
8:12 2 3 mph 1020.1mb 58f
8:06 2 5 mph 1020mb 58f
8:00 3
mph
1020.1mb 58f
7:54 2 3 mph 1020.1mb 57f
7:48 2 5 mph 1020.1mb 57f
7:42 5 6 mph 1020.1mb 56f
7:36 5 6 mph 1020.1mb 56f
7:30 5
mph
1020mb 56f
7:24 5
mph
1019.9mb 56f
7:18 3 5 mph 1020mb 56f
7:12 5
mph
1020mb 55f
7:06 3 5 mph 1019.9mb 55f
7:00 5 6 mph 1019.9mb 55f
6:54 6
mph
1019.8mb 54f
6:48 5 6 mph 1019.8mb 54f
6:42 6
mph
1019.8mb 55f
6:36 5 6 mph 1019.9mb 55f
6:30 5 6 mph 1019.8mb 56f
6:24 5 7 mph 1019.8mb 56f
6:18 6 7 mph 1019.8mb 56f
6:12 6 7 mph 1019.9mb 55f
6:06 5 6 mph 1020mb 55f
6:00 5 6 mph 1020.1mb 56f
5:54 3 6 mph 1020.1mb 56f
5:48 3 5 mph 1020.1mb 56f
5:42 2 3 mph 1020.1mb 57f
5:36 2
mph
1020.1mb 56f
5:30 2
mph
1020mb 56f
5:24 1 3 mph 1020mb 56f
5:18 2 3 mph 1019.9mb 56f
5:12 2 3 mph 1019.9mb 56f
5:06 2 3 mph 1019.8mb 56f
5:00 2 5 mph 1019.8mb 56f
4:54 2 5 mph 1019.7mb 56f
4:48 5 6 mph 1019.7mb 56f
4:42 5 7 mph 1019.7mb 56f
4:36 6 7 mph 1019.7mb 56f
4:30 7 8 mph 1019.7mb 56f
4:24 3 5 mph 1019.7mb 56f
4:18 5
mph
1019.8mb 55f
4:12 5 6 mph 1019.8mb 55f
4:06 5 6 mph 1019.8mb 55f
4:00 6
mph
1019.8mb 55f
3:54 6 7 mph 1019.8mb 55f
3:48 6
mph
1019.9mb 56f
3:42 3 5 mph 1019.9mb 56f
3:36 2 3 mph 1020mb 55f
3:30 3 5 mph 1020mb 55f
3:24 3 6 mph 1020.1mb 56f
3:18 5 6 mph 1020.1mb 57f
3:12 5 6 mph 1020.1mb 56f
3:06 5 6 mph 1020.1mb 57f
3:00 5
mph
1020.2mb 57f
2:54 3 5 mph 1020.2mb 57f
2:48 3 6 mph 1020.2mb 57f
2:42 6
mph
1020.1mb 57f
2:36 3 5 mph 1020.1mb 58f
2:30 3 5 mph 1020.1mb 58f
2:24 3 5 mph 1020.2mb 58f
2:18 3
mph
1020.2mb 59f
2:12 2 3 mph 1020.1mb 59f
2:06 3 5 mph 1020.2mb 59f
2:00 3 5 mph 1020.2mb 59f
1:54 3 5 mph 1020.2mb 59f
1:48 5
mph
1020.1mb 60f
1:42 2 3 mph 1020mb 60f
1:36 2 3 mph 1020mb 60f
1:30 3 8 mph 1020mb 60f
1:24 7 8 mph 1020mb 60f
1:18 7 9 mph 1020mb 60f
1:12 9 10 mph 1020mb 60f
1:06 7 8 mph 1020mb 60f
1:00 7 8 mph 1020.1mb 60f
12:54 6
mph
1020.1mb 60f
12:48 2 6 mph 1020.3mb 60f
12:42 3 7 mph 1020.2mb 61f
12:36 5 6 mph 1020.2mb 61f
12:30 3 5 mph 1020.2mb 60f
12:24 3 6 mph 1020.2mb 61f
12:18 5 8 mph 1020.1mb 60f
12:12 6 8 mph 1020.1mb 61f
12:06 7 9 mph 1020.2mb 61f
12:00 7 9 mph 1020.1mb 60f
mer. 07/30 11:54 7 9 mph 1020.1mb 61f
11:48 6 10 mph 1020.1mb 61f
11:42 8 9 mph 1020.1mb 61f
11:36 9 13 mph 1020.1mb 61f
11:30 10 15 mph 1020.1mb 61f
11:24 10 13 mph 1020mb 61f
11:18 6 8 mph 1020.1mb 61f
11:12 6 8 mph 1020.2mb 62f
11:06 6 9 mph 1020.1mb 61f
11:00 6 7 mph 1020.2mb 62f
10:54 6 7 mph 1020.3mb 62f
10:48 6 7 mph 1020.2mb 62f
10:42 2 3 mph 1020.2mb 62f
10:36 1 5 mph 1020.3mb 62f
10:30 1 3 mph 1020.2mb 62f
10:24 2 3 mph 1020.1mb 62f
10:18  -  6 mph 1020.1mb 62f
10:12 6 9 mph 1020.1mb 62f
10:06 8 10 mph 1020.1mb 63f
10:00 3 6 mph 1020mb 63f
9:54 3 6 mph 1020.1mb 63f
9:48 3
mph
1020.1mb 63f
9:42  -  6 mph 1020mb 62f
9:36 5 6 mph 1020mb 63f
9:30 5 10 mph 1019.9mb 63f
9:24 6 10 mph 1019.8mb 63f
9:18 6 9 mph 1019.8mb 63f
9:12 2 6 mph 1019.9mb 63f
9:06 7 11 mph 1019.8mb 63f
9:00 9 14 mph 1019.8mb 64f
8:54 10 13 mph 1019.8mb 64f
8:48 8 16 mph 1019.8mb 64f
8:42 10 16 mph 1019.8mb 64f
8:36 10 20 mph 1019.8mb 64f
8:30 11 17 mph 1019.8mb 64f
8:24 10 15 mph 1019.7mb 64f
8:18 10 16 mph 1019.7mb 64f
8:12 8 17 mph 1019.7mb 64f
8:06 14 21 mph 1019.6mb 64f
8:00 15 25 mph 1019.6mb 64f
7:54 16 25 mph 1019.6mb 64f
7:48 16 26 mph 1019.6mb 64f
7:42 21 29 mph 1019.6mb 64f
7:36 24 26 mph 1019.6mb 65f
7:30 21 25 mph 1019.6mb 65f
7:24 16 22 mph 1019.7mb 65f
7:18 16 21 mph 1019.7mb 65f
7:12 17 21 mph 1019.7mb 65f
7:06 21 25 mph 1019.7mb 65f
7:00 21 26 mph 1019.6mb 65f
6:54 18 25 mph 1019.7mb 65f
6:48 21 28 mph 1019.8mb 65f
6:42 23 31 mph 1019.8mb 66f
6:36 14 22 mph 1019.9mb 66f
6:30 17 25 mph 1019.8mb 66f
6:24 11 18 mph 1019.9mb 67f
6:18 14 21 mph 1019.9mb 67f
6:12 17 23 mph 1019.9mb 67f
6:06 15 20 mph 1020mb 67f
6:00 10 23 mph 1020mb 67f
5:54 15 23 mph 1020mb 67f
5:48 14 21 mph 1020.1mb 67f
5:42 9 16 mph 1020.2mb 67f
5:36 10 17 mph 1020.2mb 67f
5:30 9 16 mph 1020.2mb 67f
5:24 11 17 mph 1020.2mb 67f
5:18 14 25 mph 1020.2mb 67f
5:12 17 25 mph 1020.2mb 67f
5:06 16 25 mph 1020.3mb 67f
5:00 17 23 mph 1020.2mb 67f
4:54 17 22 mph 1020.2mb 68f
4:48 16 20 mph 1020.3mb 67f
4:42 18 22 mph 1020.4mb 67f
4:36 15 22 mph 1020.4mb 68f
4:30 18 23 mph 1020.4mb 68f
4:24 18 25 mph 1020.4mb 68f
4:18 18 23 mph 1020.5mb 68f
4:12 21 24 mph 1020.5mb 68f
4:06 17 20 mph 1020.5mb 68f
4:00 18 22 mph 1020.5mb 67f
3:54 17 23 mph 1020.6mb 68f
3:48 17 23 mph 1020.7mb 68f
3:42 18 25 mph 1020.8mb 68f
3:36 16 21 mph 1020.8mb 68f
3:30 18 22 mph 1020.9mb 68f
3:24 20 23 mph 1020.9mb 69f
3:18 17 20 mph 1020.8mb 68f
3:12 17 23 mph 1020.8mb 68f
3:06 17 22 mph 1020.8mb 68f
3:00 16 17 mph 1020.9mb 68f
2:54 14 16 mph 1021mb 68f
2:48 11 16 mph 1021mb 69f
2:42 9 15 mph 1021mb 69f
2:36 14 17 mph 1020.9mb 70f
2:30 13 16 mph 1020.9mb 69f
2:24 13 21 mph 1020.9mb 69f
2:18 14 18 mph 1020.9mb 69f
2:12 14 16 mph 1020.9mb 70f
2:06 14 17 mph 1021mb 69f
2:00 15 17 mph 1021mb 68f
1:54 14 16 mph 1021.1mb 68f
1:48 13 16 mph 1021.1mb 69f
1:42 14 17 mph 1021.1mb 68f
1:36 14 17 mph 1021.2mb 68f
1:30 14 16 mph 1021.2mb 68f
1:24 14 16 mph 1021.2mb 69f
1:18 15 17 mph 1021.1mb 69f
1:12 14 17 mph 1021.1mb 69f
1:06 14 16 mph 1021.1mb 69f
1:00 11 16 mph 1021.1mb 69f
12:54 10 17 mph 1021.1mb 69f
12:48 10 15 mph 1021.1mb 69f
12:42 10 13 mph 1021.1mb 69f
12:36 9 10 mph 1021.2mb 70f
12:30 9 10 mph 1021.2mb 69f
12:24 8 9 mph 1021.3mb 69f
12:18 3 7 mph 1021.3mb 69f
12:12 1 5 mph 1021.3mb 68f
12:06 3 6 mph 1021.3mb 67f
12:00 2 3 mph 1021.3mb 67f
11:54 2 5 mph 1021.4mb 67f
11:48 2 6 mph 1021.4mb 67f
11:42 3 7 mph 1021.4mb 66f
11:36 5 7 mph 1021.4mb 66f
11:30 6 7 mph 1021.5mb 65f
11:24 6 8 mph 1021.4mb 65f
11:18 6 8 mph 1021.4mb 64f
11:12 6 8 mph 1021.4mb 63f
11:06 6 7 mph 1021.3mb 64f
11:00 6 7 mph 1021.4mb 64f
10:54 6 7 mph 1021.4mb 63f
10:48 6 7 mph 1021.4mb 63f
10:42 5 6 mph 1021.4mb 62f
10:36 3 6 mph 1021.4mb 63f
10:30 5 6 mph 1021.4mb 62f
10:24 5 6 mph 1021.4mb 61f
10:18 5 6 mph 1021.4mb 61f
10:12 3 6 mph 1021.5mb 61f
10:06 2 3 mph 1021.5mb 61f
10:00 2 3 mph 1021.4mb 61f
9:54 2 5 mph 1021.4mb 60f
9:48 2 5 mph 1021.4mb 60f
9:42 2 3 mph 1021.4mb 60f
9:36 3 5 mph 1021.5mb 60f
9:30 2 3 mph 1021.5mb 60f
9:24 2 5 mph 1021.6mb 60f
9:18 1 3 mph 1021.7mb 60f
9:12 2 3 mph 1021.7mb 60f
9:06 1 5 mph 1021.7mb 60f
9:00 1 5 mph 1021.6mb 60f
8:54 2 3 mph 1021.6mb 59f
8:48 2 5 mph 1021.6mb 59f
8:42 2 3 mph 1021.6mb 59f
8:36 2 5 mph 1021.6mb 58f
8:30 2 5 mph 1021.6mb 58f
8:24 3 6 mph 1021.6mb 58f
8:18 6 8 mph 1021.5mb 57f
8:12 7 10 mph 1021.6mb 57f
8:06 9 11 mph 1021.5mb 57f
8:00 8 9 mph 1021.5mb 57f
7:54 7 9 mph 1021.5mb 57f
7:48 8 9 mph 1021.5mb 57f
7:42 8 10 mph 1021.5mb 57f
7:36 6 9 mph 1021.5mb 57f
7:30 9 10 mph 1021.5mb 57f
7:24 7 10 mph 1021.4mb 57f
7:18 8 11 mph 1021.5mb 57f
7:12 8 9 mph 1021.5mb 57f
7:06 9 10 mph 1021.5mb 57f
7:00 9 10 mph 1021.5mb 57f
6:54 8 11 mph 1021.5mb 57f
6:48 8 10 mph 1021.4mb 57f
6:42 8 10 mph 1021.3mb 57f
6:36 8 9 mph 1021.3mb 57f
6:30 6 9 mph 1021.3mb 57f
6:24 7 10 mph 1021.3mb 57f
6:18 7 10 mph 1021.3mb 57f
6:12 7 9 mph 1021.3mb 57f
6:06 6 8 mph 1021.3mb 57f
6:00 5 8 mph 1021.2mb 57f
5:54 5 7 mph 1021.3mb 57f
5:48 6 7 mph 1021.2mb 57f
5:42 7
mph
1021.1mb 57f
5:36 6 10 mph 1021.1mb 57f
5:30 5 8 mph 1021.1mb 57f
5:24 6 8 mph 1021mb 57f
5:18 7 9 mph 1021mb 57f
5:12 9 10 mph 1021mb 57f
5:06 6 8 mph 1021mb 57f
5:00 6 8 mph 1021.1mb 57f
4:54 9 13 mph 1021.2mb 57f
4:48 8 10 mph 1021.2mb 57f
4:42 9 13 mph 1021.1mb 57f
4:36 8 15 mph 1021.1mb 57f
4:30 10 14 mph 1021.1mb 57f
4:24 10 16 mph 1021.2mb 57f
4:18 11 16 mph 1021.2mb 57f
4:12 8 15 mph 1021.1mb 57f
4:06 11 15 mph 1021.1mb 57f
4:00 10 15 mph 1021.2mb 57f
3:54 9 13 mph 1021.2mb 57f
3:48 11 14 mph 1021.2mb 57f
3:42 8 14 mph 1021.2mb 58f
3:36 8 13 mph 1021.2mb 58f
3:30 9 10 mph 1021.3mb 58f
3:24 10 14 mph 1021.2mb 58f
3:18 8 13 mph 1021.2mb 58f
3:12 8 11 mph 1021.3mb 58f
3:06 8 14 mph 1021.3mb 58f
3:00 8 11 mph 1021.3mb 58f
2:54 8 11 mph 1021.2mb 58f
2:48 7 11 mph 1021.2mb 58f
2:42 7 10 mph 1021.2mb 58f
2:36 8 13 mph 1021.2mb 58f
2:30 8 13 mph 1021.2mb 58f
2:24 7 11 mph 1021.1mb 58f
2:18 10 16 mph 1021.1mb 58f
2:12 10 14 mph 1021.1mb 58f
2:06 10 15 mph 1021.1mb 58f
2:00 6 10 mph 1021.2mb 58f
1:54 6 8 mph 1021.2mb 58f
1:48 8 11 mph 1021.2mb 58f
1:42 5 6 mph 1021.2mb 58f
1:36 6 8 mph 1021.1mb 58f
1:30 9 11 mph 1021.1mb 57f
1:24 6 9 mph 1021.1mb 57f
1:18 7 11 mph 1021.1mb 57f
1:12 7 9 mph 1021.1mb 58f
1:06 7 9 mph 1021mb 58f
1:00 8 10 mph 1021mb 58f
12:54 8 13 mph 1021mb 58f
12:48 9 11 mph 1020.9mb 58f
12:42 9 11 mph 1020.9mb 58f
12:36 7 14 mph 1020.9mb 58f
12:30 11 15 mph 1021mb 58f
12:24 10 14 mph 1021.1mb 58f
12:18 10 14 mph 1021.1mb 58f
12:12 6 14 mph 1021.1mb 58f
12:06 9 14 mph 1021.1mb 58f
12:00 10 15 mph 1021.1mb 58f
mar. 07/29 11:54 7 10 mph 1021.1mb 58f
11:48 8 10 mph 1021.1mb 58f
11:42 8 10 mph 1021.1mb 58f
11:36 9 11 mph 1021mb 58f
11:30 6 10 mph 1021.1mb 58f
11:24 7 9 mph 1021.1mb 58f
11:18 9 11 mph 1021.1mb 58f
11:12 8 10 mph 1021.1mb 58f
11:06 9 11 mph 1021.2mb 59f
11:00 8 11 mph 1021.2mb 59f
10:54 8 13 mph 1021.2mb 58f
10:48 8 10 mph 1021.2mb 59f
10:42 8 14 mph 1021.2mb 59f
10:36 9 11 mph 1021.2mb 59f
10:30 9 14 mph 1021.2mb 59f
10:24 5 7 mph 1021.2mb 59f
10:18 6 9 mph 1021.1mb 59f
10:12 6 8 mph 1021.1mb 59f
10:06 7 13 mph 1021.1mb 59f
10:00 11 14 mph 1021.1mb 59f
9:54 9 13 mph 1021.1mb 59f
9:48 8 9 mph 1021mb 59f
9:42 7 13 mph 1021mb 59f
9:36 10 17 mph 1021.1mb 59f
9:30 11 16 mph 1021.1mb 59f
9:24 13 16 mph 1021mb 59f
9:18 13 17 mph 1021mb 59f
9:12 9 16 mph 1021mb 60f
9:06 9 11 mph 1021mb 59f
9:00 14 17 mph 1020.9mb 60f
8:54 13 18 mph 1020.9mb 60f
8:48 14 20 mph 1020.9mb 60f
8:42 15 21 mph 1020.9mb 60f
8:36 10 13 mph 1020.9mb 60f
8:30 11 15 mph 1021mb 60f
8:24 10 15 mph 1021mb 60f
8:18 13 15 mph 1021mb 60f
8:12 11 15 mph 1021mb 60f
8:06 9 15 mph 1021mb 60f
8:00 8 15 mph 1021mb 60f
7:54 10 18 mph 1020.9mb 60f
7:48 13 18 mph 1021mb 60f
7:42 10 14 mph 1021mb 60f
7:36 9 14 mph 1021mb 60f
7:30 11 21 mph 1021mb 60f
7:24 14 18 mph 1021mb 60f
7:18 13 15 mph 1020.9mb 60f
7:12 14 20 mph 1020.8mb 60f
7:06 16 21 mph 1020.8mb 60f
7:00 13 20 mph 1020.7mb 61f
6:54 17 25 mph 1020.7mb 61f
6:48 16 21 mph 1020.6mb 62f
6:42 15 22 mph 1020.6mb 62f
6:36 16 22 mph 1020.5mb 62f
6:30 14 17 mph 1020.6mb 62f
6:24 16 22 mph 1020.7mb 62f
6:18 11 16 mph 1020.7mb 63f
6:12 13 15 mph 1020.7mb 63f
6:06 17 22 mph 1020.8mb 63f
6:00 14 24 mph 1020.7mb 63f
5:54 18 25 mph 1020.7mb 63f
5:48 16 23 mph 1020.7mb 63f
5:42 15 21 mph 1020.8mb 64f
5:36 15 20 mph 1020.8mb 64f
5:30 15 20 mph 1020.8mb 64f
5:24 16 24 mph 1020.7mb 64f
5:18 14 21 mph 1020.8mb 64f
5:12 15 22 mph 1020.8mb 64f
5:06 15 20 mph 1020.8mb 64f
5:00 13 16 mph 1020.8mb 64f
4:54 11 20 mph 1020.8mb 64f
4:48 15 21 mph 1020.8mb 64f
4:42 10 16 mph 1020.8mb 65f
4:36 11 18 mph 1020.9mb 64f
4:30 16 21 mph 1020.9mb 64f
4:24 14 18 mph 1020.9mb 64f
4:18 14 20 mph 1020.9mb 64f
4:12 13 18 mph 1021mb 64f
4:06 13 16 mph 1021mb 63f
4:00 10 15 mph 1021.1mb 63f
3:54 11 16 mph 1021mb 63f
3:48 15 18 mph 1021mb 63f
3:42 11 16 mph 1021mb 63f
3:36 11 20 mph 1021mb 63f
3:30 14 17 mph 1021.1mb 63f
3:24 14 16 mph 1021.1mb 63f
3:18 13 16 mph 1021.1mb 63f
3:12 11 15 mph 1021.2mb 64f
3:06 13 17 mph 1021.3mb 64f
3:00 10 15 mph 1021.3mb 64f
2:54 8 14 mph 1021.3mb 63f
2:48 10 15 mph 1021.3mb 64f
2:42 9 16 mph 1021.3mb 64f
2:36 14 17 mph 1021.3mb 64f
2:30 11 14 mph 1021.3mb 64f
2:24 10 16 mph 1021.3mb 64f
2:18 13 16 mph 1021.3mb 64f
2:12 14 17 mph 1021.3mb 63f
2:06 14 16 mph 1021.3mb 63f
2:00 15 18 mph 1021.3mb 63f
1:54 16 18 mph 1021.2mb 64f
1:48 16 17 mph 1021.2mb 64f
1:42 13 16 mph 1021.2mb 65f
1:36 10 15 mph 1021.2mb 66f
1:30 14 17 mph 1021.1mb 65f
1:24 14 17 mph 1021.1mb 66f
1:18 13 15 mph 1021.1mb 66f
1:12 13 16 mph 1021.1mb 66f
1:06 10 15 mph 1021.2mb 67f
1:00 8 10 mph 1021.2mb 66f
12:54 8 10 mph 1021.3mb 66f
12:48 8 13 mph 1021.3mb 66f
12:42 10 15 mph 1021.4mb 65f
12:36 13 15 mph 1021.3mb 65f
12:30 11 17 mph 1021.4mb 64f
12:24 10 15 mph 1021.4mb 65f
12:18 13 16 mph 1021.5mb 64f
12:12 10 16 mph 1021.5mb 64f
12:06 15 18 mph 1021.6mb 64f
12:00 13 16 mph 1021.6mb 63f
11:54 10 13 mph 1021.6mb 63f
11:48 14 16 mph 1021.6mb 63f
11:42 9 15 mph 1021.6mb 62f
11:36 11 17 mph 1021.7mb 62f
11:30 15 18 mph 1021.7mb 62f
11:24 14 17 mph 1021.7mb 62f
11:18 10 16 mph 1021.8mb 62f
11:12 10 15 mph 1021.7mb 62f
11:06 14 17 mph 1021.7mb 61f
11:00 11 16 mph 1021.7mb 62f
10:54 11 16 mph 1021.7mb 62f
10:48 13 20 mph 1021.7mb 62f
10:42 16 18 mph 1021.6mb 62f
10:36 13 16 mph 1021.7mb 62f
10:30 14 16 mph 1021.7mb 62f
10:24 14 20 mph 1021.7mb 62f
10:18 15 18 mph 1021.7mb 62f
10:12 9 14 mph 1021.7mb 62f
10:06 9 14 mph 1021.7mb 62f
10:00 8 13 mph 1021.6mb 62f
9:54 8 13 mph 1021.6mb 62f
9:48 10 14 mph 1021.6mb 61f
9:42 8 13 mph 1021.6mb 61f
9:36 6 8 mph 1021.6mb 61f
9:30 3 5 mph 1021.7mb 61f
9:24  -  2 mph 1021.8mb 60f
9:18 2 5 mph 1021.8mb 59f
9:12 2 3 mph 1021.8mb 59f
9:06  -  2 mph 1021.8mb 60f
9:00  -  2 mph 1021.9mb 59f
8:54 1 3 mph 1021.8mb 58f
8:48 2 3 mph 1021.9mb 58f
8:42 2 3 mph 1021.9mb 57f
8:36 2 5 mph 1021.8mb 57f
8:30 5 6 mph 1021.8mb 57f
8:24 3 5 mph 1021.8mb 56f
8:18 3 5 mph 1021.7mb 56f
8:12 2 5 mph 1021.7mb 56f
8:06 2 5 mph 1021.7mb 56f
8:00 3 5 mph 1021.8mb 55f
7:54 2 6 mph 1021.8mb 55f
7:48 5 6 mph 1021.7mb 55f
7:42 2 6 mph 1021.8mb 55f
7:36 5 7 mph 1021.8mb 55f
7:30 5 6 mph 1021.7mb 55f
7:24 6 9 mph 1021.7mb 55f
7:18 7 8 mph 1021.7mb 55f
7:12 8 10 mph 1021.6mb 55f
7:06 7 8 mph 1021.6mb 55f
7:00 6 8 mph 1021.6mb 55f
6:54 8 11 mph 1021.5mb 55f
6:48 6 9 mph 1021.5mb 55f
6:42 6 10 mph 1021.4mb 55f
6:36 9 13 mph 1021.4mb 55f
6:30 8 10 mph 1021.3mb 55f
6:24 7 9 mph 1021.3mb 55f
6:18 8 9 mph 1021.2mb 55f
6:12 8 11 mph 1021.3mb 55f
6:06 5 6 mph 1021.2mb 55f
6:00 2 5 mph 1021.2mb 55f
5:54 3 7 mph 1021.2mb 55f
5:48 6 8 mph 1021.2mb 55f
5:42 5 6 mph 1021.2mb 55f
5:36 3 7 mph 1021.2mb 55f
5:30 5 7 mph 1021.2mb 55f
5:24 6 8 mph 1021.2mb 56f
5:18 3 8 mph 1021.1mb 56f
5:12 5 9 mph 1021mb 56f
5:06 8 10 mph 1021mb 55f
5:00 6 8 mph 1020.9mb 55f
4:54 6 8 mph 1020.9mb 55f
4:48 3 7 mph 1020.9mb 56f
4:42 6 8 mph 1020.8mb 56f
4:36 5 9 mph 1020.8mb 56f
4:30 8 10 mph 1020.8mb 56f
4:24 8 13 mph 1020.8mb 56f
4:18 10 13 mph 1020.8mb 56f
4:12 6 8 mph 1020.7mb 56f
4:06 6 7 mph 1020.7mb 56f
4:00 5 9 mph 1020.7mb 56f
3:54 7 9 mph 1020.7mb 56f
3:48 1 3 mph 1020.6mb 56f
3:42 1 2 mph 1020.5mb 56f
3:36  -  2 mph 1020.5mb 56f
3:30  -  3 mph 1020.5mb 56f
3:24 2 3 mph 1020.5mb 56f
3:18 2 3 mph 1020.5mb 55f
3:12 2 5 mph 1020.5mb 56f
3:06 2 3 mph 1020.5mb 55f
3:00  -  6 mph 1020.6mb 55f
2:54 3 6 mph 1020.6mb 55f
2:48 3 6 mph 1020.6mb 56f
2:42 3 6 mph 1020.5mb 55f
2:36 5 6 mph 1020.5mb 56f
2:30 6 8 mph 1020.5mb 55f
2:24 5 6 mph 1020.5mb 56f
2:18 3 6 mph 1020.5mb 56f
2:12 2 6 mph 1020.4mb 55f
2:06 2 5 mph 1020.4mb 55f
2:00 5 7 mph 1020.4mb 55f
1:54 5 8 mph 1020.4mb 56f
1:48 8 9 mph 1020.4mb 56f
1:42 8 9 mph 1020.3mb 56f
1:36 7 9 mph 1020.4mb 56f
1:30 6 8 mph 1020.4mb 56f
1:24 6 8 mph 1020.4mb 56f
1:18 6 7 mph 1020.4mb 56f
1:12 3 6 mph 1020.4mb 55f
1:06 5 6 mph 1020.4mb 56f
1:00 2 6 mph 1020.5mb 56f
12:54 3 6 mph 1020.5mb 56f
12:48 3 6 mph 1020.5mb 56f
12:42 5 7 mph 1020.5mb 56f
12:36 5 7 mph 1020.5mb 56f
12:30 5 7 mph 1020.5mb 56f
12:24 8 10 mph 1020.5mb 56f
12:18 7 8 mph 1020.5mb 56f
12:12 5 8 mph 1020.5mb 56f
12:06 5 7 mph 1020.6mb 56f
12:00 3 6 mph 1020.5mb 57f
lun. 07/28 11:54 2 6 mph 1020.6mb 57f
11:48 3 7 mph 1020.6mb 57f
11:42 6 8 mph 1020.6mb 57f
11:36 8 10 mph 1020.6mb 57f
11:30 8 10 mph 1020.5mb 57f
11:24 7 10 mph 1020.5mb 58f
11:18 3 6 mph 1020.5mb 58f
11:12 3 6 mph 1020.5mb 57f
11:06 5 8 mph 1020.5mb 57f
11:00 6 9 mph 1020.5mb 58f
10:54 7 14 mph 1020.5mb 57f
10:48 11 14 mph 1020.6mb 58f
10:42 7 10 mph 1020.6mb 58f
10:36 8 11 mph 1020.6mb 58f
10:30 8 13 mph 1020.6mb 58f
10:24 11 16 mph 1020.6mb 58f
10:18 8 11 mph 1020.6mb 58f
10:12 7 10 mph 1020.6mb 58f
10:06 7 13 mph 1020.6mb 58f
10:00 9 13 mph 1020.6mb 58f
9:54 6 8 mph 1020.6mb 58f
9:48 8 11 mph 1020.6mb 58f
9:42 7 11 mph 1020.6mb 58f
9:36 7 9 mph 1020.6mb 58f
9:30 7 10 mph 1020.6mb 58f
9:24 5 8 mph 1020.6mb 58f
9:18 6 8 mph 1020.5mb 58f
9:12 6 8 mph 1020.5mb 58f
9:06 8 10 mph 1020.4mb 58f
9:00 7 8 mph 1020.3mb 58f
8:54 5 8 mph 1020.3mb 59f
8:48 6 8 mph 1020.3mb 59f
8:42 5 8 mph 1020.2mb 59f
8:36 5 7 mph 1020.1mb 59f
8:30 5 9 mph 1020mb 60f
8:24 5 10 mph 1020mb 60f
8:18 7 10 mph 1020mb 60f
8:12 7 11 mph 1019.9mb 61f
8:06 8 11 mph 1019.9mb 61f
8:00 10 14 mph 1019.9mb 61f
7:54 7 9 mph 1019.8mb 62f
7:48 7 9 mph 1019.9mb 61f
7:42 8 11 mph 1019.9mb 61f
7:36 10 13 mph 1019.8mb 61f
7:30 10 13 mph 1019.8mb 61f
7:24 11 14 mph 1019.8mb 62f
7:18 11 13 mph 1019.8mb 62f
7:12 11 14 mph 1019.9mb 62f
7:06 13 14 mph 1019.8mb 62f
7:00 11 17 mph 1019.8mb 63f
6:54 13 14 mph 1019.8mb 63f
6:48 10 15 mph 1019.8mb 64f
6:42 9 13 mph 1019.7mb 64f
6:36 8 17 mph 1019.7mb 64f
6:30 10 17 mph 1019.7mb 64f
6:24 13 15 mph 1019.7mb 64f
6:18 14 17 mph 1019.7mb 65f
6:12 11 14 mph 1019.6mb 65f
6:06 9 13 mph 1019.7mb 65f
6:00 10 14 mph 1019.7mb 65f
5:54 9 14 mph 1019.7mb 66f
5:48 8 14 mph 1019.7mb 67f
5:42 14 18 mph 1019.7mb 67f
5:36 7 11 mph 1019.8mb 68f
5:30 10 14 mph 1019.8mb 67f
5:24 10 14 mph 1019.8mb 68f
5:18 10 13 mph 1019.8mb 67f
5:12 11 15 mph 1019.8mb 67f
5:06 10 15 mph 1019.8mb 68f
5:00 13 15 mph 1019.8mb 68f
4:54 10 11 mph 1019.9mb 68f
4:48 10 14 mph 1020mb 68f
4:42 10 14 mph 1020mb 68f
4:36 8 11 mph 1020mb 68f
4:30 10 14 mph 1020mb 68f
4:24 13 15 mph 1020mb 68f
4:18 11 14 mph 1020.1mb 68f
4:12 10 15 mph 1020.1mb 68f
4:06 11 14 mph 1020.1mb 68f
4:00 9 15 mph 1020.1mb 69f
3:54 10 13 mph 1020.2mb 69f
3:48 8 14 mph 1020.2mb 69f
3:42 8 9 mph 1020.2mb 69f
3:36 10 13 mph 1020.2mb 69f
3:30 8 13 mph 1020.2mb 68f
3:24 13 14 mph 1020.3mb 68f
3:18 11 14 mph 1020.3mb 68f
3:12 10 13 mph 1020.4mb 68f
3:06 10 14 mph 1020.4mb 69f
3:00 10 13 mph 1020.5mb 69f
2:54 10 14 mph 1020.4mb 69f
2:48 10 14 mph 1020.3mb 69f
2:42 10 14 mph 1020.2mb 69f
2:36 9 11 mph 1020.2mb 69f
2:30 10
mph
1020.2mb 69f
2:24 8 11 mph 1020.2mb 69f
2:18 7 10 mph 1020.2mb 69f
2:12 8 10 mph 1020.2mb 68f
2:06 9 14 mph 1020.2mb 69f
2:00 10 15 mph 1020.2mb 68f
1:54 11 15 mph 1020.2mb 67f
1:48 13 16 mph 1020.2mb 67f
1:42 14 17 mph 1020.1mb 67f
1:36 16 20 mph 1020.1mb 66f
1:30 18 20 mph 1020.1mb 66f
1:24 16 17 mph 1020mb 67f
1:18 13 14 mph 1020mb 69f
1:12 9 11 mph 1020mb 70f
1:06 9 11 mph 1020.1mb 70f
1:00 8 9 mph 1020.1mb 70f
12:54 9 11 mph 1020.1mb 70f
12:48 8 10 mph 1020.1mb 70f
12:42 8 10 mph 1020.1mb 69f
12:36 9 14 mph 1020.1mb 69f
12:30 14 16 mph 1020.1mb 68f
12:24 14 17 mph 1020.1mb 67f
12:18 15 17 mph 1020.1mb 68f
12:12 13 16 mph 1020mb 69f
12:06 13 15 mph 1020mb 69f
12:00 11 14 mph 1020mb 69f
11:54 10 13 mph 1020mb 69f
11:48 11 13 mph 1020mb 69f
11:42 9 13 mph 1020mb 69f
11:36 5 8 mph 1020mb 70f
11:30 3 6 mph 1020.1mb 70f
11:24 2 9 mph 1020.1mb 70f
11:18 8 11 mph 1020mb 69f
11:12 7 9 mph 1020mb 68f
11:06 6 9 mph 1020.1mb 68f
11:00 1 3 mph 1020.1mb 69f
10:54 1 3 mph 1020.1mb 68f
10:48 1 2 mph 1020.1mb 68f
10:42  -  2 mph 1020.2mb 67f
10:36  -  2 mph 1020.2mb 67f
10:30 1 2 mph 1020.2mb 66f
10:24 1 2 mph 1020.3mb 65f
10:18  -  2 mph 1020.2mb 66f
10:12  -  2 mph 1020.2mb 65f
10:06 2 3 mph 1020.3mb 64f
10:00  -  5 mph 1020.3mb 64f
9:54 3 5 mph 1020.3mb 63f
9:48 5 6 mph 1020.3mb 62f
9:42 3 6 mph 1020.3mb 62f
9:36 5 7 mph 1020.4mb 62f
9:30 5 6 mph 1020.4mb 61f
9:24 5 7 mph 1020.4mb 60f
9:18 5 6 mph 1020.4mb 60f
9:12 5 7 mph 1020.4mb 60f
9:06 6 7 mph 1020.5mb 59f
9:00 6 7 mph 1020.5mb 59f
8:54 6 7 mph 1020.5mb 58f
8:48 7 8 mph 1020.6mb 58f
8:42 7 8 mph 1020.6mb 58f
8:36 6 8 mph 1020.6mb 57f
8:30 6 7 mph 1020.6mb 57f
8:24 5 8 mph 1020.6mb 57f
8:18 3 6 mph 1020.6mb 58f
8:12 2 5 mph 1020.5mb 57f
8:06 2 3 mph 1020.6mb 57f
8:00 2 5 mph 1020.6mb 57f
7:54 5
mph
1020.6mb 56f
7:48 5 6 mph 1020.6mb 56f
7:42 3 7 mph 1020.6mb 56f
7:36 6 7 mph 1020.5mb 56f
7:30 6 7 mph 1020.5mb 56f
7:24 6 7 mph 1020.5mb 57f
7:18 6 7 mph 1020.4mb 56f
7:12 6 7 mph 1020.3mb 56f
7:06 6 8 mph 1020.3mb 56f
7:00 6 8 mph 1020.3mb 57f
6:54 7 8 mph 1020.3mb 56f
6:48 6 7 mph 1020.2mb 57f
6:42 6 8 mph 1020.2mb 56f
6:36 7 8 mph 1020.2mb 57f
6:30 6 7 mph 1020.1mb 57f
6:24 5 6 mph 1020.1mb 58f
6:18 5
mph
1020.1mb 58f
6:12 3 5 mph 1020.1mb 58f
6:06 5
mph
1020.1mb 58f
6:00 5
mph
1020.1mb 58f
5:54 3 5 mph 1020mb 58f
5:48 3 5 mph 1020mb 58f
5:42 2 3 mph 1020mb 58f
5:36 2 3 mph 1020mb 58f
5:30 2 3 mph 1020mb 58f
5:24 2 3 mph 1019.9mb 58f
5:18 1 2 mph 1020mb 57f
5:12 1 2 mph 1019.9mb 57f
5:06 2 3 mph 1019.8mb 57f
5:00 2 5 mph 1019.8mb 57f
4:54 3 5 mph 1019.7mb 58f
4:48 5 6 mph 1019.6mb 58f
4:42 5 6 mph 1019.6mb 58f
4:36 5 6 mph 1019.7mb 58f
4:30 3
mph
1019.7mb 58f
4:24 3 5 mph 1019.7mb 57f
4:18 5 6 mph 1019.7mb 57f
4:12 5 6 mph 1019.7mb 57f